KTIX/TIX METAR and TAF weather

Enter ICAO airport designator
Station Type Date Time Source
KTIX METAR 2022/08/13 11:53 UTC NOAA

KTIX 131153Z 00000KT 7SM SCT050 BKN100 24/23 A3002


Station Type Date Time Source
KTIX Decoded METAR 2022/08/13 11:53 UTC NOAA

Titusville, FL, United States (KTIX) 28-31N 080-48W
Aug 13, 2022 - 07:53 AM EDT / 2022.08.13 1153 UTC
Wind: Calm:0
Visibility: 7 mile(s):0
Sky conditions: mostly cloudy
Temperature: 75 F (24 C)
Dew Point: 73 F (23 C)
Relative Humidity: 94%
Pressure (altimeter): 30.02 in. Hg (1016 hPa)
ob: KTIX 131153Z 00000KT 7SM SCT050 BKN100 24/23 A3002
cycle: 12

Station Type Date Time Source
KTIX TAF 2022/08/13 12:22 UTC NOAA

TAF KTIX 131120Z 1312/1412 20004KT P6SM SCT050 BKN100
FM131800 VRB05KT P6SM VCTS SCT040CB BKN230
TEMPO 1319/1322 4SM TSRA BKN040CB BKN070
FM140000 VRB03KT P6SM VCSH SCT050 BKN120
FM140200 00000KT P6SM SCT040 BKN200

Example: see airport list